createdAt,value
2023-03-06T00:00:30.954Z,-0.93
2023-03-06T00:03:16.124Z,-0.87
2023-03-06T00:05:44.684Z,-0.88
2023-03-06T00:08:12.986Z,-0.85
2023-03-06T00:10:41.390Z,-0.87
2023-03-06T00:13:14.218Z,-0.89
2023-03-06T00:15:42.426Z,-0.93
2023-03-06T00:18:10.687Z,-0.93
2023-03-06T00:20:43.895Z,-0.90
2023-03-06T00:23:12.123Z,-0.95
2023-03-06T00:25:44.652Z,-1.01
2023-03-06T00:28:14.990Z,-1.11
2023-03-06T00:30:44.057Z,-1.19
2023-03-06T00:33:12.302Z,-1.18
2023-03-06T00:35:41.746Z,-1.22
2023-03-06T00:38:12.061Z,-1.25
2023-03-06T00:40:40.439Z,-1.28
2023-03-06T00:43:08.580Z,-1.35
2023-03-06T00:45:37.377Z,-1.42
2023-03-06T00:48:06.594Z,-1.46
2023-03-06T00:50:35.597Z,-1.47
2023-03-06T00:53:03.763Z,-1.44
2023-03-06T00:55:33.683Z,-1.44
2023-03-06T00:58:02.057Z,-1.47
2023-03-06T01:00:30.235Z,-1.47
2023-03-06T01:02:58.504Z,-1.42
2023-03-06T01:05:26.807Z,-1.35
2023-03-06T01:07:55.151Z,-1.33
2023-03-06T01:10:23.365Z,-1.29
2023-03-06T01:12:51.504Z,-1.21
2023-03-06T01:15:21.001Z,-1.20
2023-03-06T01:17:54.006Z,-1.24
2023-03-06T01:20:22.681Z,-1.28
2023-03-06T01:22:50.827Z,-1.32
2023-03-06T01:25:18.855Z,-1.38
2023-03-06T01:27:46.989Z,-1.38
2023-03-06T01:30:15.492Z,-1.40
2023-03-06T01:32:43.765Z,-1.45
2023-03-06T01:35:12.802Z,-1.52
2023-03-06T01:37:41.172Z,-1.57
2023-03-06T01:40:11.324Z,-1.58
2023-03-06T01:42:39.828Z,-1.61
2023-03-06T01:45:14.180Z,-1.69
2023-03-06T01:47:42.341Z,-1.76
2023-03-06T01:50:11.920Z,-1.76
2023-03-06T01:52:47.136Z,-1.78
2023-03-06T01:55:20.211Z,-1.81
2023-03-06T01:57:55.014Z,-1.88
2023-03-06T02:00:26.395Z,-1.96
2023-03-06T02:03:09.140Z,-2.03
2023-03-06T02:05:39.794Z,-2.02
2023-03-06T02:08:12.659Z,-2.00
2023-03-06T02:11:11.333Z,-2.00
2023-03-06T02:13:40.620Z,-1.99
2023-03-06T02:16:10.102Z,-1.93
2023-03-06T02:18:41.066Z,-1.90
2023-03-06T02:21:13.472Z,-1.90
2023-03-06T02:23:58.293Z,-1.87
2023-03-06T02:26:28.267Z,-1.81
2023-03-06T02:28:58.665Z,-1.77
2023-03-06T02:31:29.830Z,-1.73
2023-03-06T02:34:09.349Z,-1.70
2023-03-06T02:36:43.364Z,-1.71
2023-03-06T02:39:13.528Z,-1.70
2023-03-06T02:41:41.946Z,-1.71
2023-03-06T02:44:10.242Z,-1.68
2023-03-06T02:46:38.289Z,-1.67
2023-03-06T02:49:06.358Z,-1.70
2023-03-06T02:51:35.467Z,-1.79
2023-03-06T02:54:03.598Z,-1.87
2023-03-06T02:56:32.220Z,-1.94
2023-03-06T02:59:00.262Z,-1.99
2023-03-06T03:01:29.031Z,-2.06
2023-03-06T03:03:57.562Z,-2.10
2023-03-06T03:06:25.652Z,-2.12
2023-03-06T03:08:55.013Z,-2.14
2023-03-06T03:11:23.838Z,-2.17
2023-03-06T03:13:51.936Z,-2.23
2023-03-06T03:16:23.864Z,-2.27
2023-03-06T03:18:52.475Z,-2.31
2023-03-06T03:21:22.010Z,-2.37
2023-03-06T03:23:50.459Z,-2.42
2023-03-06T03:26:21.568Z,-2.45
2023-03-06T03:29:00.790Z,-2.48
2023-03-06T03:31:29.140Z,-2.48
2023-03-06T03:33:57.458Z,-2.48
2023-03-06T03:36:27.686Z,-2.51
2023-03-06T03:38:57.731Z,-2.57
2023-03-06T03:41:26.278Z,-2.61
2023-03-06T03:43:54.559Z,-2.62
2023-03-06T03:46:26.082Z,-2.62
2023-03-06T03:48:55.107Z,-2.66
2023-03-06T03:51:23.582Z,-2.73
2023-03-06T03:53:56.869Z,-2.78
2023-03-06T03:56:26.535Z,-2.83
2023-03-06T03:59:10.737Z,-2.91
2023-03-06T04:01:46.032Z,-2.93
2023-03-06T04:04:14.898Z,-2.94
2023-03-06T04:06:43.439Z,-2.94
2023-03-06T04:09:11.877Z,-2.94
2023-03-06T04:11:40.296Z,-2.94
2023-03-06T04:14:10.009Z,-2.97
2023-03-06T04:16:38.691Z,-2.97
2023-03-06T04:19:07.437Z,-2.96
2023-03-06T04:21:35.737Z,-3.01
2023-03-06T04:24:04.543Z,-3.06
2023-03-06T04:26:32.660Z,-3.07
2023-03-06T04:29:01.920Z,-3.08
2023-03-06T04:31:30.422Z,-3.09
2023-03-06T04:33:58.581Z,-3.08
2023-03-06T04:36:32.870Z,-3.07
2023-03-06T04:39:06.081Z,-3.06
2023-03-06T04:41:35.021Z,-3.08
2023-03-06T04:44:03.402Z,-3.07
2023-03-06T04:46:31.522Z,-3.06
2023-03-06T04:49:00.157Z,-3.00
2023-03-06T04:51:28.379Z,-2.92
2023-03-06T04:53:56.784Z,-2.85
2023-03-06T04:56:24.806Z,-2.82
2023-03-06T04:58:52.812Z,-2.72
2023-03-06T05:01:21.026Z,-2.67
2023-03-06T05:03:50.099Z,-2.55
2023-03-06T05:06:18.158Z,-2.45
2023-03-06T05:08:46.379Z,-2.39
2023-03-06T05:11:14.422Z,-2.40
2023-03-06T05:13:43.173Z,-2.35
2023-03-06T05:16:11.380Z,-2.29
2023-03-06T05:18:39.473Z,-2.23
2023-03-06T05:21:07.621Z,-2.16
2023-03-06T05:23:38.611Z,-2.15
2023-03-06T05:26:12.529Z,-2.16
2023-03-06T05:28:41.293Z,-2.20
2023-03-06T05:31:09.706Z,-2.25
2023-03-06T05:33:37.752Z,-2.28
2023-03-06T05:36:08.564Z,-2.28
2023-03-06T05:38:36.814Z,-2.32
2023-03-06T05:41:05.335Z,-2.31
2023-03-06T05:43:33.333Z,-2.27
2023-03-06T05:46:04.229Z,-2.17
2023-03-06T05:48:33.109Z,-2.10
2023-03-06T05:51:02.872Z,-2.04
2023-03-06T05:53:32.079Z,-2.00
2023-03-06T05:56:06.355Z,-1.98
2023-03-06T05:58:34.934Z,-1.96
2023-03-06T06:01:11.698Z,-1.92
2023-03-06T06:03:40.292Z,-1.86
2023-03-06T06:06:11.383Z,-1.81
2023-03-06T06:08:39.846Z,-1.73
2023-03-06T06:11:10.029Z,-1.67
2023-03-06T06:13:39.164Z,-1.60
2023-03-06T06:16:19.017Z,-1.49
2023-03-06T06:18:47.202Z,-1.36
2023-03-06T06:21:15.790Z,-1.25
2023-03-06T06:23:44.458Z,-1.16
2023-03-06T06:26:12.530Z,-1.07
2023-03-06T06:28:40.802Z,-0.98
2023-03-06T06:31:12.269Z,-0.89
2023-03-06T06:33:41.465Z,-0.79
2023-03-06T06:36:20.501Z,-0.67
2023-03-06T06:38:50.024Z,-0.54
2023-03-06T06:41:53.121Z,-0.43
2023-03-06T06:44:08.628Z,-0.32
2023-03-06T06:47:21.200Z,-0.20
2023-03-06T06:49:28.036Z,-0.11
2023-03-06T06:51:56.045Z,-0.04
2023-03-06T06:54:25.009Z,0.05
2023-03-06T06:56:53.584Z,0.13
2023-03-06T06:59:23.845Z,0.24
2023-03-06T07:01:53.276Z,0.33
2023-03-06T07:04:21.701Z,0.42
2023-03-06T07:06:49.774Z,0.52
2023-03-06T07:09:18.236Z,0.61
2023-03-06T07:11:46.295Z,0.72
2023-03-06T07:14:14.893Z,0.82
2023-03-06T07:16:42.881Z,0.93
2023-03-06T07:19:10.937Z,1.03
2023-03-06T07:21:38.969Z,1.16
2023-03-06T07:24:07.294Z,1.28
2023-03-06T07:26:35.450Z,1.41
2023-03-06T07:29:04.852Z,1.54
2023-03-06T07:31:33.125Z,1.65
2023-03-06T07:34:03.856Z,1.75
2023-03-06T07:36:34.761Z,1.86
2023-03-06T07:39:02.776Z,1.97
2023-03-06T07:41:30.968Z,2.07
2023-03-06T07:43:59.420Z,2.17
2023-03-06T07:46:27.864Z,2.29
2023-03-06T07:48:58.453Z,2.37
2023-03-06T07:51:26.726Z,2.48
2023-03-06T07:53:54.766Z,2.50
2023-03-06T07:56:22.955Z,2.47
2023-03-06T07:58:50.912Z,2.54
2023-03-06T08:01:20.908Z,2.62
2023-03-06T08:03:50.365Z,2.70
2023-03-06T08:06:22.010Z,2.74
2023-03-06T08:08:52.542Z,2.85
2023-03-06T08:11:22.765Z,2.92
2023-03-06T08:13:53.088Z,2.91
2023-03-06T08:16:23.516Z,2.94
2023-03-06T08:18:52.015Z,3.07
2023-03-06T08:21:23.843Z,3.17
2023-03-06T08:23:52.150Z,3.28
2023-03-06T08:26:23.459Z,3.32
2023-03-06T08:28:53.478Z,3.33
2023-03-06T08:31:34.188Z,3.29
2023-03-06T08:34:08.880Z,3.19
2023-03-06T08:36:37.762Z,3.25
2023-03-06T08:39:06.445Z,3.33
2023-03-06T08:41:35.715Z,3.47
2023-03-06T08:44:05.600Z,3.45
2023-03-06T08:46:34.862Z,3.46
2023-03-06T08:49:03.045Z,3.38
2023-03-06T08:51:31.338Z,3.40
2023-03-06T08:54:00.143Z,3.45
2023-03-06T08:56:32.991Z,3.55
2023-03-06T08:59:03.990Z,3.66
2023-03-06T09:01:36.874Z,3.69
2023-03-06T09:04:07.947Z,3.64
2023-03-06T09:06:39.330Z,3.63
2023-03-06T09:09:08.298Z,3.66
2023-03-06T09:11:36.796Z,3.78
2023-03-06T09:14:05.997Z,3.85
2023-03-06T09:16:34.284Z,3.98
2023-03-06T09:19:02.530Z,4.04
2023-03-06T09:21:31.101Z,4.03
2023-03-06T09:24:00.060Z,4.07
2023-03-06T09:26:43.340Z,4.08
2023-03-06T09:29:13.436Z,4.07
2023-03-06T09:31:41.517Z,4.09
2023-03-06T09:34:09.580Z,4.10
2023-03-06T09:36:53.423Z,4.20
2023-03-06T09:39:24.802Z,4.31
2023-03-06T09:41:53.764Z,4.38
2023-03-06T09:44:29.178Z,4.38
2023-03-06T09:47:20.480Z,4.48
2023-03-06T09:50:14.245Z,4.59
2023-03-06T09:53:11.957Z,4.62
2023-03-06T09:55:40.671Z,4.68
2023-03-06T09:58:22.886Z,4.84
2023-03-06T10:01:01.154Z,5.08
2023-03-06T10:03:45.308Z,5.38
2023-03-06T10:06:30.454Z,5.42
2023-03-06T10:09:02.061Z,5.47
2023-03-06T10:11:39.527Z,5.57
2023-03-06T10:14:34.653Z,5.64
2023-03-06T10:17:04.659Z,5.71
2023-03-06T10:19:40.131Z,6.02
2023-03-06T10:22:27.512Z,6.20
2023-03-06T10:25:00.599Z,6.10
2023-03-06T10:27:31.952Z,6.13
2023-03-06T10:30:18.591Z,6.08
2023-03-06T10:32:58.969Z,6.11
2023-03-06T10:35:57.131Z,6.21
2023-03-06T10:38:38.573Z,6.33
2023-03-06T10:41:12.720Z,6.32
2023-03-06T10:44:01.102Z,6.29
2023-03-06T10:46:34.954Z,6.15
2023-03-06T10:49:31.400Z,6.11
2023-03-06T10:52:03.979Z,5.93
2023-03-06T10:54:35.923Z,5.90
2023-03-06T10:57:25.915Z,6.24
2023-03-06T10:59:54.073Z,6.90
2023-03-06T11:02:31.547Z,7.60
2023-03-06T11:05:01.505Z,8.10
2023-03-06T11:07:33.581Z,8.83
2023-03-06T11:10:18.127Z,9.34
2023-03-06T11:13:22.017Z,9.75
2023-03-06T11:16:07.334Z,10.16
2023-03-06T11:18:42.882Z,10.45
2023-03-06T11:21:27.087Z,10.40
2023-03-06T11:24:02.524Z,10.71
2023-03-06T11:26:44.329Z,10.57
2023-03-06T11:29:26.277Z,10.52
2023-03-06T11:32:07.165Z,10.12
2023-03-06T11:34:52.357Z,10.08
2023-03-06T11:37:33.858Z,10.51
2023-03-06T11:40:11.248Z,10.66
2023-03-06T11:42:45.770Z,11.01
2023-03-06T11:45:28.776Z,11.52
2023-03-06T11:48:20.957Z,12.03
2023-03-06T11:50:52.741Z,12.14
2023-03-06T11:53:32.254Z,12.29
2023-03-06T11:56:24.142Z,12.62
2023-03-06T11:58:58.359Z,12.88
2023-03-06T12:01:39.451Z,13.01
2023-03-06T12:04:10.379Z,13.33
2023-03-06T12:07:00.776Z,13.43
2023-03-06T12:09:45.648Z,13.58
2023-03-06T12:12:13.634Z,13.52
2023-03-06T12:14:50.954Z,13.75
2023-03-06T12:17:23.936Z,13.98
2023-03-06T12:19:52.608Z,13.78
2023-03-06T12:22:35.886Z,13.53
2023-03-06T12:25:32.093Z,13.38
2023-03-06T12:28:28.046Z,13.46
2023-03-06T12:31:40.722Z,13.46
2023-03-06T12:34:33.395Z,13.96
2023-03-06T12:37:17.214Z,14.37
2023-03-06T12:39:45.441Z,14.32
2023-03-06T12:42:35.240Z,14.36
2023-03-06T12:45:15.672Z,14.30
2023-03-06T12:47:47.516Z,14.50
2023-03-06T12:50:30.265Z,14.64
2023-03-06T12:53:03.177Z,14.37
2023-03-06T12:55:42.574Z,14.12
2023-03-06T12:58:29.500Z,13.68
2023-03-06T13:01:04.656Z,13.69
2023-03-06T13:04:07.641Z,13.67
2023-03-06T13:06:51.461Z,13.32
2023-03-06T13:09:38.968Z,12.93
2023-03-06T13:12:30.326Z,12.09
2023-03-06T13:15:19.995Z,11.25
2023-03-06T13:17:48.144Z,10.77
2023-03-06T13:20:20.614Z,10.69
2023-03-06T13:22:48.663Z,10.73
2023-03-06T13:25:19.658Z,10.59
2023-03-06T13:27:53.850Z,10.39
2023-03-06T13:30:37.165Z,10.20
2023-03-06T13:33:25.878Z,10.17
2023-03-06T13:35:59.463Z,9.92
2023-03-06T13:38:37.437Z,9.65
2023-03-06T13:41:21.011Z,9.53
2023-03-06T13:43:57.833Z,9.53
2023-03-06T13:46:35.340Z,9.46
2023-03-06T13:49:09.475Z,9.39
2023-03-06T13:51:38.840Z,9.29
2023-03-06T13:54:12.125Z,9.23
2023-03-06T13:56:59.255Z,9.21
2023-03-06T13:59:33.156Z,9.04
2023-03-06T14:02:22.341Z,8.93
2023-03-06T14:04:58.001Z,8.87
2023-03-06T14:07:35.835Z,8.75
2023-03-06T14:10:19.045Z,8.59
2023-03-06T14:12:50.046Z,8.41
2023-03-06T14:15:29.033Z,8.29
2023-03-06T14:18:33.352Z,8.21
2023-03-06T14:21:04.753Z,8.11
2023-03-06T14:23:42.499Z,8.10
2023-03-06T14:26:20.433Z,8.11
2023-03-06T14:29:02.861Z,7.99
2023-03-06T14:31:43.504Z,7.82
2023-03-06T14:34:20.663Z,7.72
2023-03-06T14:36:53.734Z,7.59
2023-03-06T14:39:23.706Z,7.52
2023-03-06T14:41:52.070Z,7.50
2023-03-06T14:44:23.438Z,7.45
2023-03-06T14:46:57.291Z,7.40
2023-03-06T14:49:26.992Z,7.37
2023-03-06T14:52:00.487Z,7.31
2023-03-06T14:54:34.509Z,7.23
2023-03-06T14:57:06.546Z,7.18
2023-03-06T14:59:58.042Z,7.05
2023-03-06T15:02:32.976Z,6.95
2023-03-06T15:05:06.550Z,6.86
2023-03-06T15:07:35.487Z,6.77
2023-03-06T15:10:06.696Z,6.70
2023-03-06T15:12:38.744Z,6.63
2023-03-06T15:15:07.040Z,6.60
2023-03-06T15:17:43.873Z,6.56
2023-03-06T15:21:00.434Z,6.51
2023-03-06T15:23:46.413Z,6.46
2023-03-06T15:26:37.022Z,6.38
2023-03-06T15:29:09.683Z,6.29
2023-03-06T15:31:43.590Z,6.19
2023-03-06T15:34:11.664Z,6.10
2023-03-06T15:36:51.700Z,6.02
2023-03-06T15:39:28.719Z,6.00
2023-03-06T15:42:14.280Z,5.99
2023-03-06T15:44:42.863Z,5.96
2023-03-06T15:47:12.072Z,5.90
2023-03-06T15:49:40.703Z,5.85
2023-03-06T15:52:09.664Z,5.82
2023-03-06T15:54:38.120Z,5.78
2023-03-06T15:57:08.520Z,5.67
2023-03-06T15:59:44.402Z,5.54
2023-03-06T16:02:18.724Z,5.43
2023-03-06T16:04:48.039Z,5.32
2023-03-06T16:07:16.542Z,5.24
2023-03-06T16:09:44.943Z,5.18
2023-03-06T16:12:18.375Z,5.13
2023-03-06T16:14:48.821Z,5.09
2023-03-06T16:17:17.705Z,5.08
2023-03-06T16:19:45.868Z,5.03
2023-03-06T16:22:14.656Z,4.91
2023-03-06T16:24:43.551Z,4.78
2023-03-06T16:27:23.500Z,4.65
2023-03-06T16:29:52.347Z,4.52
2023-03-06T16:32:20.332Z,4.44
2023-03-06T16:34:48.629Z,4.34
2023-03-06T16:37:17.203Z,4.23
2023-03-06T16:39:45.274Z,4.14
2023-03-06T16:42:13.344Z,4.09
2023-03-06T16:44:41.620Z,4.06
2023-03-06T16:47:12.444Z,4.04
2023-03-06T16:49:40.602Z,4.01
2023-03-06T16:52:11.499Z,3.97
2023-03-06T16:54:39.641Z,3.95
2023-03-06T16:57:09.379Z,3.93
2023-03-06T16:59:37.628Z,3.90
2023-03-06T17:02:05.805Z,3.79
2023-03-06T17:04:34.077Z,3.68
2023-03-06T17:07:03.277Z,3.59
2023-03-06T17:09:31.860Z,3.53
2023-03-06T17:11:59.862Z,3.53
2023-03-06T17:14:28.001Z,3.50
2023-03-06T17:16:56.102Z,3.42
2023-03-06T17:19:24.135Z,3.32
2023-03-06T17:21:52.354Z,3.24
2023-03-06T17:24:20.693Z,3.18
2023-03-06T17:26:49.173Z,3.14
2023-03-06T17:29:17.252Z,3.02
2023-03-06T17:31:47.373Z,2.96
2023-03-06T17:34:15.439Z,2.98
2023-03-06T17:36:44.234Z,3.02
2023-03-06T17:39:13.124Z,3.01
2023-03-06T17:41:41.845Z,2.97
2023-03-06T17:44:12.229Z,2.95
2023-03-06T17:46:40.317Z,2.97
2023-03-06T17:49:08.674Z,2.96
2023-03-06T17:51:36.862Z,2.90
2023-03-06T17:54:05.245Z,2.85
2023-03-06T17:56:33.452Z,2.79
2023-03-06T17:59:01.994Z,2.78
2023-03-06T18:01:30.771Z,2.76
2023-03-06T18:03:59.049Z,2.71
2023-03-06T18:06:30.438Z,2.71
2023-03-06T18:08:58.562Z,2.70
2023-03-06T18:11:27.789Z,2.67
2023-03-06T18:13:56.139Z,2.66
2023-03-06T18:16:27.533Z,2.65
2023-03-06T18:18:56.594Z,2.65
2023-03-06T18:21:25.187Z,2.64
2023-03-06T18:23:54.057Z,2.60
2023-03-06T18:26:25.359Z,2.54
2023-03-06T18:28:56.791Z,2.47
2023-03-06T18:31:34.670Z,2.35
2023-03-06T18:34:09.484Z,2.24
2023-03-06T18:36:38.174Z,2.20
2023-03-06T18:39:08.923Z,2.17
2023-03-06T18:41:38.029Z,2.13
2023-03-06T18:44:06.829Z,2.08
2023-03-06T18:46:37.806Z,2.00
2023-03-06T18:49:06.640Z,1.89
2023-03-06T18:51:35.195Z,1.85
2023-03-06T18:54:05.849Z,1.87
2023-03-06T18:56:34.564Z,1.83
2023-03-06T18:59:05.657Z,1.74
2023-03-06T19:01:34.623Z,1.70
2023-03-06T19:04:03.986Z,1.76
2023-03-06T19:06:32.564Z,1.76
2023-03-06T19:09:02.318Z,1.76
2023-03-06T19:11:32.160Z,1.78
2023-03-06T19:14:00.955Z,1.86
2023-03-06T19:16:31.208Z,1.87
2023-03-06T19:18:59.760Z,1.89
2023-03-06T19:21:28.861Z,1.93
2023-03-06T19:23:57.438Z,2.03
2023-03-06T19:26:26.536Z,2.08
2023-03-06T19:28:54.659Z,2.15
2023-03-06T19:31:26.294Z,2.11
2023-03-06T19:33:56.744Z,2.11
2023-03-06T19:36:28.830Z,2.15
2023-03-06T19:38:58.926Z,2.15
2023-03-06T19:41:27.928Z,2.13
2023-03-06T19:43:59.041Z,2.18
2023-03-06T19:46:27.706Z,2.17
2023-03-06T19:48:58.373Z,2.15
2023-03-06T19:51:27.133Z,2.17
2023-03-06T19:53:56.210Z,2.12
2023-03-06T19:56:27.429Z,2.14
2023-03-06T19:58:56.108Z,2.10
2023-03-06T20:01:26.333Z,2.11
2023-03-06T20:03:59.210Z,2.07
2023-03-06T20:06:30.298Z,2.00
2023-03-06T20:08:59.120Z,1.98
2023-03-06T20:11:31.958Z,1.96
2023-03-06T20:14:02.588Z,1.94
2023-03-06T20:16:31.976Z,1.92
2023-03-06T20:19:01.684Z,1.90
2023-03-06T20:21:32.373Z,1.90
2023-03-06T20:24:00.439Z,1.90
2023-03-06T20:26:29.498Z,1.86
2023-03-06T20:28:59.328Z,1.81
2023-03-06T20:31:30.093Z,1.78
2023-03-06T20:33:59.612Z,1.71
2023-03-06T20:36:36.012Z,1.68
2023-03-06T20:39:08.957Z,1.67
2023-03-06T20:41:37.588Z,1.66
2023-03-06T20:44:07.843Z,1.67
2023-03-06T20:46:36.427Z,1.78
2023-03-06T20:49:05.472Z,1.83
2023-03-06T20:51:37.592Z,1.88
2023-03-06T20:54:08.461Z,1.92
2023-03-06T20:56:39.544Z,1.95
2023-03-06T20:59:12.296Z,1.93
2023-03-06T21:01:43.261Z,1.91
2023-03-06T21:04:14.080Z,1.86
2023-03-06T21:06:46.654Z,1.85
2023-03-06T21:09:17.317Z,1.81
2023-03-06T21:11:46.268Z,1.78
2023-03-06T21:14:15.671Z,1.78
2023-03-06T21:16:44.052Z,1.87
2023-03-06T21:19:12.128Z,1.98
2023-03-06T21:21:40.761Z,2.06
2023-03-06T21:24:09.144Z,2.17
2023-03-06T21:26:37.358Z,2.28
2023-03-06T21:29:05.535Z,2.35
2023-03-06T21:31:34.386Z,2.37
2023-03-06T21:34:04.992Z,2.36
2023-03-06T21:36:34.254Z,2.49
2023-03-06T21:39:06.340Z,2.65
2023-03-06T21:41:34.908Z,2.71
2023-03-06T21:44:05.804Z,2.69
2023-03-06T21:46:34.866Z,2.71
2023-03-06T21:49:05.515Z,2.75
2023-03-06T21:51:34.363Z,2.79
2023-03-06T21:54:03.045Z,2.82
2023-03-06T21:56:33.264Z,2.86
2023-03-06T21:59:01.644Z,2.92
2023-03-06T22:01:30.698Z,2.95
2023-03-06T22:04:00.356Z,2.94
2023-03-06T22:06:30.465Z,2.95
2023-03-06T22:09:00.277Z,2.97
2023-03-06T22:11:36.897Z,3.01
2023-03-06T22:14:06.210Z,3.06
2023-03-06T22:16:34.857Z,2.91
2023-03-06T22:19:03.304Z,2.74
2023-03-06T22:21:31.593Z,2.55
2023-03-06T22:23:59.982Z,2.42
2023-03-06T22:26:29.664Z,2.34
2023-03-06T22:28:57.705Z,2.31
2023-03-06T22:31:28.605Z,2.31
2023-03-06T22:33:59.804Z,2.26
2023-03-06T22:36:32.803Z,2.26
2023-03-06T22:39:02.796Z,2.26
2023-03-06T22:41:31.546Z,2.23
2023-03-06T22:44:01.930Z,2.23
2023-03-06T22:46:31.752Z,2.24
2023-03-06T22:49:01.760Z,2.23
2023-03-06T22:51:30.268Z,2.24
2023-03-06T22:53:58.928Z,2.24
2023-03-06T22:56:26.994Z,2.21
2023-03-06T22:58:55.184Z,2.22
2023-03-06T23:01:26.005Z,2.23
2023-03-06T23:03:56.747Z,2.22
2023-03-06T23:06:30.351Z,2.19
2023-03-06T23:09:14.742Z,2.15
2023-03-06T23:12:01.551Z,2.20
2023-03-06T23:14:51.314Z,2.25
2023-03-06T23:17:38.205Z,2.31
2023-03-06T23:20:24.962Z,2.35
2023-03-06T23:23:11.617Z,2.42
2023-03-06T23:25:43.706Z,2.46
2023-03-06T23:28:12.348Z,2.53
2023-03-06T23:30:41.801Z,2.61
2023-03-06T23:33:10.702Z,2.71
2023-03-06T23:35:39.250Z,2.79
2023-03-06T23:38:07.831Z,2.85
2023-03-06T23:40:37.767Z,2.91
2023-03-06T23:43:06.336Z,2.96
2023-03-06T23:45:34.500Z,3.01
2023-03-06T23:48:04.410Z,3.04
2023-03-06T23:50:33.503Z,3.03
2023-03-06T23:53:01.585Z,2.97
2023-03-06T23:55:29.767Z,2.95
2023-03-06T23:57:57.826Z,2.88
